Crandalls Lodge, Iowa
Current Conditions -  °F | °C
As of 12:13 AM on Sunday 21 Dec 2014 (Local Time) from KMJQ Reporting Station
Overcast Overcast  
Wind Chill: -6°   Ceiling: 400
Heat Index:   Visibility: 7mi
Dew Point: -1°   Wind: 16mph
Humidity: 93%   Direction: 190°S
Pressure: 29.99"   Gusts: 21mph
Location:  43.4265°N, 95.1547°W
Report Text: KMJQ 210613Z AUTO 19014G18KT 7SM OVC004 00/M01 A2999 RMK AO2
Loading
Personal Weather Stations






























Interactive Weather Map New forecast layout! Learn more

10-Day Weather Forecast

Advertisements
Track Severe Weather on mobile